Time;durP1;ratioP1;P1;durP2;ratioP2;P2;SDS_P1;SDS_P2;PMS_P1;PMS_P2;Temp;Humidity;BMP_temperature;BMP_pressure;BME280_temperature;BME280_humidity;BME280_pressure;Samples;Min_cycle;Max_cycle;Signal;HPM_P1;HPM_P2
2022/03/03 00:01:41;;;;;;;30.40;20.40;;;;;;;;;;5005372;28;20190;-78
2022/03/03 00:04:07;;;;;;;27.60;18.80;;;;;;;;;;5019999;28;20281;-74
2022/03/03 00:06:33;;;;;;;29.10;19.40;;;;;;;;;;5001258;28;20210;-76
2022/03/03 00:08:59;;;;;;;30.83;18.93;;;;;;;;;;4984537;28;21839;-74
2022/03/03 00:11:26;;;;;;;30.53;19.93;;;;;;;;;;5005570;28;20195;-74
2022/03/03 00:13:52;;;;;;;30.47;19.47;;;;;;;;;;5003639;28;20307;-74
2022/03/03 00:16:18;;;;;;;33.73;21.07;;;;;;;;;;5001743;28;20262;-74
2022/03/03 00:18:44;;;;;;;29.87;20.40;;;;;;;;;;5002612;28;20191;-74
2022/03/03 00:21:11;;;;;;;32.93;20.37;;;;;;;;;;5005530;28;20799;-74
2022/03/03 00:23:37;;;;;;;29.10;19.40;;;;;;;;;;4997947;28;20180;-74
2022/03/03 00:26:03;;;;;;;30.27;19.67;;;;;;;;;;5003148;28;20557;-74
2022/03/03 00:28:29;;;;;;;31.27;20.03;;;;;;;;;;5001958;28;20187;-74
2022/03/03 00:30:55;;;;;;;30.33;19.57;;;;;;;;;;5004363;28;20215;-74
2022/03/03 00:33:22;;;;;;;30.50;19.33;;;;;;;;;;5001197;28;20187;-74
2022/03/03 00:35:48;;;;;;;29.93;20.13;;;;;;;;;;5003236;28;20662;-74
2022/03/03 00:38:14;;;;;;;30.47;19.37;;;;;;;;;;4984019;28;20215;-74
2022/03/03 00:40:41;;;;;;;30.40;19.93;;;;;;;;;;5003299;28;20326;-73
2022/03/03 00:43:08;;;;;;;28.23;19.53;;;;;;;;;;5007331;28;20183;-74
2022/03/03 00:45:35;;;;;;;29.30;18.53;;;;;;;;;;5006639;28;20219;-74
2022/03/03 00:48:01;;;;;;;29.60;19.30;;;;;;;;;;5008292;28;20245;-73
2022/03/03 00:50:27;;;;;;;31.47;19.43;;;;;;;;;;5006814;28;20187;-73
2022/03/03 00:52:53;;;;;;;29.80;19.30;;;;;;;;;;5006464;28;20183;-73
2022/03/03 00:55:20;;;;;;;27.93;18.90;;;;;;;;;;5008332;28;20667;-73
2022/03/03 00:57:46;;;;;;;32.57;18.77;;;;;;;;;;5006556;28;20688;-74
2022/03/03 01:00:13;;;;;;;31.63;19.77;;;;;;;;;;5006340;28;20191;-73
2022/03/03 01:02:39;;;;;;;31.73;19.90;;;;;;;;;;5004200;28;20262;-73
2022/03/03 01:05:06;;;;;;;30.57;18.80;;;;;;;;;;5004627;28;20198;-74
2022/03/03 01:07:32;;;;;;;28.60;17.70;;;;;;;;;;5004197;28;20216;-73
2022/03/03 01:09:58;;;;;;;30.17;18.83;;;;;;;;;;5004702;28;20184;-73
2022/03/03 01:12:24;;;;;;;27.70;17.90;;;;;;;;;;5002030;28;20207;-73
2022/03/03 01:14:51;;;;;;;32.87;19.93;;;;;;;;;;5002250;28;20191;-73
2022/03/03 01:17:17;;;;;;;32.37;18.67;;;;;;;;;;5003591;28;20215;-73
2022/03/03 01:19:44;;;;;;;30.13;17.90;;;;;;;;;;5003271;28;20547;-74
2022/03/03 01:22:10;;;;;;;27.03;18.17;;;;;;;;;;5003674;28;20183;-73
2022/03/03 01:24:37;;;;;;;27.63;17.63;;;;;;;;;;5006457;28;20175;-74
2022/03/03 01:27:03;;;;;;;32.33;19.27;;;;;;;;;;5005367;28;20212;-73
2022/03/03 01:29:30;;;;;;;26.23;17.33;;;;;;;;;;5004502;28;20183;-74
2022/03/03 01:31:56;;;;;;;25.77;16.53;;;;;;;;;;5006685;28;20183;-73
2022/03/03 01:34:23;;;;;;;27.23;17.93;;;;;;;;;;5007183;28;20183;-73
2022/03/03 01:36:49;;;;;;;26.53;17.33;;;;;;;;;;5004668;28;20588;-73
2022/03/03 01:39:15;;;;;;;29.87;17.57;;;;;;;;;;5006105;28;20768;-74
2022/03/03 01:41:41;;;;;;;26.60;17.20;;;;;;;;;;5008679;28;20176;-73
2022/03/03 01:44:08;;;;;;;27.90;18.23;;;;;;;;;;5008565;28;20183;-73
2022/03/03 01:46:35;;;;;;;25.93;16.73;;;;;;;;;;5008559;28;20334;-73
2022/03/03 01:49:01;;;;;;;27.57;19.00;;;;;;;;;;5006888;28;20183;-73
2022/03/03 01:51:27;;;;;;;29.27;18.03;;;;;;;;;;5007552;28;20219;-73
2022/03/03 01:53:54;;;;;;;26.77;18.27;;;;;;;;;;4989395;28;20693;-73
2022/03/03 01:56:20;;;;;;;27.63;18.10;;;;;;;;;;5002338;28;20219;-73
2022/03/03 01:58:46;;;;;;;28.47;19.60;;;;;;;;;;5018639;28;20741;-73
2022/03/03 02:01:16;;;;;;;29.07;19.53;;;;;;;;;;5006312;28;20277;-73
2022/03/03 02:03:42;;;;;;;28.57;18.00;;;;;;;;;;5007701;28;20222;-73
2022/03/03 02:06:08;;;;;;;28.03;18.63;;;;;;;;;;5006197;28;20175;-73
2022/03/03 02:08:34;;;;;;;28.47;19.67;;;;;;;;;;5003022;28;20705;-73
2022/03/03 02:11:01;;;;;;;31.07;19.27;;;;;;;;;;5009523;28;20241;-73
2022/03/03 02:13:27;;;;;;;25.00;17.57;;;;;;;;;;5006257;28;20568;-74
2022/03/03 02:15:54;;;;;;;31.00;19.63;;;;;;;;;;5008246;28;20281;-73
2022/03/03 02:18:21;;;;;;;29.50;18.53;;;;;;;;;;5007272;28;20281;-73
2022/03/03 02:20:48;;;;;;;28.67;19.43;;;;;;;;;;5004081;28;20271;-73
2022/03/03 02:23:15;;;;;;;29.23;19.57;;;;;;;;;;5023452;28;20192;-74
2022/03/03 02:25:42;;;;;;;30.07;18.63;;;;;;;;;;5005192;28;20274;-74
2022/03/03 02:28:08;;;;;;;28.37;18.67;;;;;;;;;;5007475;28;22226;-74
2022/03/03 02:30:34;;;;;;;30.47;18.77;;;;;;;;;;5006433;28;20284;-73
2022/03/03 02:33:01;;;;;;;30.03;19.27;;;;;;;;;;5007573;28;20200;-73
2022/03/03 02:35:29;;;;;;;29.30;18.90;;;;;;;;;;5008192;28;20631;-73
2022/03/03 02:37:55;;;;;;;28.57;18.77;;;;;;;;;;5006430;28;20220;-73
2022/03/03 02:40:21;;;;;;;29.27;20.50;;;;;;;;;;5018843;28;20967;-73
2022/03/03 02:42:51;;;;;;;30.80;20.90;;;;;;;;;;5002121;28;20226;-74
2022/03/03 02:45:17;;;;;;;31.13;20.73;;;;;;;;;;5006758;28;20212;-73
2022/03/03 02:47:47;;;;;;;30.90;19.50;;;;;;;;;;5007540;28;20213;-74
2022/03/03 02:50:14;;;;;;;31.23;19.17;;;;;;;;;;5003588;28;20910;-73
2022/03/03 02:52:41;;;;;;;28.90;18.27;;;;;;;;;;5005781;28;21253;-73
2022/03/03 02:55:07;;;;;;;28.13;18.13;;;;;;;;;;4993626;28;20472;-73
2022/03/03 03:00:18;;;;;;;31.37;18.87;;;;;;;;;;5006182;28;20446;-73
2022/03/03 03:02:44;;;;;;;29.23;19.63;;;;;;;;;;5005705;28;20438;-72
2022/03/03 03:05:10;;;;;;;30.33;18.80;;;;;;;;;;4998499;28;20721;-73
2022/03/03 03:07:37;;;;;;;32.63;18.73;;;;;;;;;;5004190;28;20227;-73
2022/03/03 03:10:04;;;;;;;27.73;17.33;;;;;;;;;;5005588;28;20531;-73
2022/03/03 03:12:30;;;;;;;26.00;16.57;;;;;;;;;;4999500;28;20520;-73
2022/03/03 03:14:56;;;;;;;28.13;17.30;;;;;;;;;;5005313;28;20259;-73
2022/03/03 03:17:22;;;;;;;32.37;19.43;;;;;;;;;;5004711;28;20223;-73
2022/03/03 03:19:48;;;;;;;32.60;19.47;;;;;;;;;;5008445;28;20504;-73
2022/03/03 03:22:14;;;;;;;28.63;18.37;;;;;;;;;;5007279;28;20179;-74
2022/03/03 03:24:40;;;;;;;28.77;17.77;;;;;;;;;;5023246;28;20450;-74
2022/03/03 03:27:07;;;;;;;25.60;17.33;;;;;;;;;;5010802;28;20462;-73
2022/03/03 03:29:33;;;;;;;28.03;18.33;;;;;;;;;;5005755;28;20187;-74
2022/03/03 03:31:59;;;;;;;36.07;21.47;;;;;;;;;;5021075;28;20197;-73
2022/03/03 03:34:25;;;;;;;29.00;18.83;;;;;;;;;;5005543;28;20198;-74
2022/03/03 03:36:52;;;;;;;29.47;18.40;;;;;;;;;;5006271;28;20730;-74
2022/03/03 03:39:18;;;;;;;29.20;17.57;;;;;;;;;;5008547;28;20422;-74
2022/03/03 03:41:44;;;;;;;27.93;17.93;;;;;;;;;;5006397;28;20946;-74
2022/03/03 03:44:11;;;;;;;28.87;17.87;;;;;;;;;;5000153;28;20806;-74
2022/03/03 03:46:37;;;;;;;44.00;26.57;;;;;;;;;;5004504;28;20756;-73
2022/03/03 03:49:03;;;;;;;36.73;22.17;;;;;;;;;;5008030;28;20434;-74
2022/03/03 03:51:30;;;;;;;33.13;20.30;;;;;;;;;;5003158;28;20851;-74
2022/03/03 03:53:56;;;;;;;36.83;22.30;;;;;;;;;;5008180;28;21014;-74
2022/03/03 03:56:22;;;;;;;28.97;18.83;;;;;;;;;;5008147;28;20282;-73
2022/03/03 03:58:50;;;;;;;30.83;19.20;;;;;;;;;;5005418;28;20278;-74
2022/03/03 04:01:16;;;;;;;29.53;19.37;;;;;;;;;;5005145;28;20577;-74
2022/03/03 04:03:43;;;;;;;32.57;20.27;;;;;;;;;;5005131;28;20651;-74
2022/03/03 04:06:09;;;;;;;30.43;18.77;;;;;;;;;;5007038;28;20804;-73
2022/03/03 04:08:36;;;;;;;32.07;19.13;;;;;;;;;;5005399;28;20207;-74
2022/03/03 04:11:03;;;;;;;28.73;19.10;;;;;;;;;;4998107;28;20647;-73
2022/03/03 04:13:30;;;;;;;31.07;19.17;;;;;;;;;;5000902;28;20276;-73
2022/03/03 04:15:56;;;;;;;29.47;19.20;;;;;;;;;;5001836;28;20514;-73
2022/03/03 04:18:22;;;;;;;28.77;19.10;;;;;;;;;;5003643;28;20219;-73
2022/03/03 04:20:48;;;;;;;31.77;20.13;;;;;;;;;;5015179;28;20196;-73
2022/03/03 04:23:19;;;;;;;29.87;20.50;;;;;;;;;;5006602;28;20438;-73
2022/03/03 04:25:45;;;;;;;27.40;17.70;;;;;;;;;;5005186;28;20694;-73
2022/03/03 04:28:11;;;;;;;28.27;19.07;;;;;;;;;;5006480;28;20985;-73
2022/03/03 04:30:37;;;;;;;28.73;18.17;;;;;;;;;;5006275;28;20437;-73
2022/03/03 04:33:03;;;;;;;27.47;18.17;;;;;;;;;;5005713;28;20877;-73
2022/03/03 04:35:30;;;;;;;25.97;17.13;;;;;;;;;;5009019;28;20446;-73
2022/03/03 04:37:56;;;;;;;26.87;17.00;;;;;;;;;;5008103;28;20544;-73
2022/03/03 04:40:22;;;;;;;27.07;16.43;;;;;;;;;;5007262;28;20455;-73
2022/03/03 04:42:51;;;;;;;22.83;15.17;;;;;;;;;;5006816;28;20426;-74
2022/03/03 04:45:18;;;;;;;25.73;16.00;;;;;;;;;;5005471;28;20429;-73
2022/03/03 04:47:44;;;;;;;30.90;17.87;;;;;;;;;;5005834;28;20473;-73
2022/03/03 04:50:10;;;;;;;28.10;16.53;;;;;;;;;;5009755;28;20667;-73
2022/03/03 04:52:37;;;;;;;32.83;19.40;;;;;;;;;;5008347;28;21286;-73
2022/03/03 04:55:04;;;;;;;35.33;18.73;;;;;;;;;;5009533;28;20201;-73
2022/03/03 04:57:31;;;;;;;42.40;21.47;;;;;;;;;;5006296;28;20470;-74
2022/03/03 04:59:58;;;;;;;49.60;22.27;;;;;;;;;;4991435;28;20176;-73
2022/03/03 05:02:24;;;;;;;46.20;22.70;;;;;;;;;;5003627;28;20453;-74
2022/03/03 05:04:50;;;;;;;40.73;20.57;;;;;;;;;;5002106;28;20501;-73
2022/03/03 05:07:16;;;;;;;37.67;21.13;;;;;;;;;;5003165;28;20597;-73
2022/03/03 05:09:42;;;;;;;42.73;21.87;;;;;;;;;;5005641;28;20537;-73
2022/03/03 05:12:09;;;;;;;37.43;20.77;;;;;;;;;;5009657;28;20941;-73
2022/03/03 05:14:35;;;;;;;32.73;19.73;;;;;;;;;;5008760;28;20472;-73
2022/03/03 05:17:01;;;;;;;31.57;19.30;;;;;;;;;;5008236;28;20467;-73
2022/03/03 05:19:27;;;;;;;26.70;16.93;;;;;;;;;;4993346;28;20438;-74
2022/03/03 05:21:53;;;;;;;44.63;22.87;;;;;;;;;;5009039;28;20450;-74
2022/03/03 05:24:20;;;;;;;30.03;18.73;;;;;;;;;;5003386;28;20924;-73
2022/03/03 05:26:46;;;;;;;34.50;19.53;;;;;;;;;;5005956;28;20203;-73
2022/03/03 05:29:12;;;;;;;65.00;31.60;;;;;;;;;;5004531;28;20916;-74
2022/03/03 05:31:38;;;;;;;36.40;21.40;;;;;;;;;;5009725;28;20448;-73
2022/03/03 05:34:05;;;;;;;46.20;25.57;;;;;;;;;;5011871;28;20476;-73
2022/03/03 05:36:31;;;;;;;59.23;31.33;;;;;;;;;;5008574;28;21464;-73
2022/03/03 05:38:58;;;;;;;38.70;21.90;;;;;;;;;;5001025;28;20184;-74
2022/03/03 05:41:25;;;;;;;31.03;20.20;;;;;;;;;;5007787;28;21252;-73
2022/03/03 05:43:51;;;;;;;33.60;19.43;;;;;;;;;;5010799;28;20528;-74
2022/03/03 05:46:18;;;;;;;41.27;25.37;;;;;;;;;;5008080;28;20455;-73
2022/03/03 05:48:45;;;;;;;32.03;20.27;;;;;;;;;;5004707;28;20454;-74
2022/03/03 05:51:11;;;;;;;30.47;18.97;;;;;;;;;;5004482;28;20516;-73
2022/03/03 05:53:38;;;;;;;35.03;20.07;;;;;;;;;;5008446;28;20505;-73
2022/03/03 05:56:07;;;;;;;30.50;18.60;;;;;;;;;;5011084;28;20445;-73
2022/03/03 05:58:43;;;;;;;28.97;18.03;;;;;;;;;;5011586;28;21043;-73
2022/03/03 06:01:10;;;;;;;26.43;17.73;;;;;;;;;;5009987;28;20445;-73
2022/03/03 06:03:37;;;;;;;32.67;18.90;;;;;;;;;;5006623;28;20446;-74
2022/03/03 06:06:15;;;;;;;30.43;18.30;;;;;;;;;;5010706;28;20588;-74
2022/03/03 06:09:08;;;;;;;25.77;17.57;;;;;;;;;;5013618;28;20517;-74
2022/03/03 06:11:40;;;;;;;30.27;19.10;;;;;;;;;;4995125;28;20954;-75
2022/03/03 06:14:07;;;;;;;27.20;18.63;;;;;;;;;;4998550;28;20191;-74
2022/03/03 06:16:35;;;;;;;29.50;18.07;;;;;;;;;;5007650;28;20461;-75
2022/03/03 06:19:02;;;;;;;29.80;18.20;;;;;;;;;;5012026;28;20971;-75
2022/03/03 06:21:28;;;;;;;28.47;18.27;;;;;;;;;;5012290;28;20429;-76
2022/03/03 06:23:54;;;;;;;28.20;18.97;;;;;;;;;;5011762;28;20438;-76
2022/03/03 06:26:20;;;;;;;29.87;19.63;;;;;;;;;;5009995;28;20474;-73
2022/03/03 06:28:47;;;;;;;31.77;20.00;;;;;;;;;;5011060;28;20456;-74
2022/03/03 06:31:14;;;;;;;29.97;19.63;;;;;;;;;;5006758;28;20454;-74
2022/03/03 06:33:40;;;;;;;33.67;20.50;;;;;;;;;;5007222;28;20429;-74
2022/03/03 06:36:07;;;;;;;48.73;29.40;;;;;;;;;;5009648;28;20226;-74
2022/03/03 06:38:33;;;;;;;42.43;25.70;;;;;;;;;;4992147;28;20470;-74
2022/03/03 06:40:59;;;;;;;36.23;23.73;;;;;;;;;;5023322;28;20465;-74
2022/03/03 06:43:29;;;;;;;34.80;22.47;;;;;;;;;;5008910;28;20445;-74
2022/03/03 06:45:59;;;;;;;34.80;21.90;;;;;;;;;;5009277;28;20422;-74
2022/03/03 06:48:25;;;;;;;34.37;20.70;;;;;;;;;;5013755;28;20454;-74
2022/03/03 06:50:53;;;;;;;30.80;20.43;;;;;;;;;;5010808;28;20434;-74
2022/03/03 06:53:28;;;;;;;36.20;21.87;;;;;;;;;;5008330;28;20831;-74
2022/03/03 06:55:55;;;;;;;34.70;20.87;;;;;;;;;;5009502;28;20448;-74
2022/03/03 06:58:26;;;;;;;44.97;26.37;;;;;;;;;;5010325;28;20823;-74
2022/03/03 07:00:52;;;;;;;57.73;31.27;;;;;;;;;;5008214;28;20772;-76
2022/03/03 07:03:21;;;;;;;52.83;29.27;;;;;;;;;;5007268;28;20442;-77
2022/03/03 07:05:47;;;;;;;46.90;27.63;;;;;;;;;;5008813;28;20427;-77
2022/03/03 07:08:13;;;;;;;45.07;25.67;;;;;;;;;;5011228;28;20485;-77
2022/03/03 07:10:40;;;;;;;39.07;24.00;;;;;;;;;;5009780;28;20952;-77
2022/03/03 07:13:06;;;;;;;34.23;21.60;;;;;;;;;;5010096;28;20535;-76
2022/03/03 07:15:35;;;;;;;35.67;22.07;;;;;;;;;;5006117;28;20517;-77
2022/03/03 07:18:12;;;;;;;36.60;22.00;;;;;;;;;;5024379;28;20476;-77
2022/03/03 07:20:56;;;;;;;37.27;23.33;;;;;;;;;;5006929;28;20444;-78
2022/03/03 07:23:36;;;;;;;33.33;20.77;;;;;;;;;;5014329;28;20453;-77
2022/03/03 07:26:03;;;;;;;34.10;19.57;;;;;;;;;;5005486;28;20191;-73
2022/03/03 07:28:30;;;;;;;33.93;22.13;;;;;;;;;;5006820;28;20202;-77
2022/03/03 07:30:58;;;;;;;32.73;21.97;;;;;;;;;;5023158;28;20430;-78
2022/03/03 07:33:43;;;;;;;30.03;20.63;;;;;;;;;;5006565;28;20925;-80
2022/03/03 07:36:10;;;;;;;36.60;21.30;;;;;;;;;;5008846;28;20179;-78
2022/03/03 07:38:37;;;;;;;35.57;21.87;;;;;;;;;;5006623;28;20643;-78
2022/03/03 07:41:03;;;;;;;34.57;22.27;;;;;;;;;;5003822;28;20274;-78
2022/03/03 07:43:29;;;;;;;32.77;21.80;;;;;;;;;;5006280;28;20183;-78
2022/03/03 07:45:56;;;;;;;37.13;22.60;;;;;;;;;;5007514;28;20642;-78
2022/03/03 07:48:23;;;;;;;33.90;22.03;;;;;;;;;;5005789;28;20199;-78
2022/03/03 07:50:49;;;;;;;36.17;22.23;;;;;;;;;;5013142;28;20262;-78
2022/03/03 07:53:16;;;;;;;33.40;22.23;;;;;;;;;;5010611;28;20191;-77
2022/03/03 07:55:51;;;;;;;35.43;22.23;;;;;;;;;;5009460;28;20448;-78
2022/03/03 07:58:19;;;;;;;38.87;22.57;;;;;;;;;;5012126;28;20501;-78
2022/03/03 08:00:48;;;;;;;33.50;20.90;;;;;;;;;;5011231;28;20242;-78
2022/03/03 08:03:21;;;;;;;30.30;19.87;;;;;;;;;;5026822;28;20241;-78
2022/03/03 08:05:49;;;;;;;33.13;21.03;;;;;;;;;;5001452;28;20227;-78
2022/03/03 08:08:16;;;;;;;30.60;20.33;;;;;;;;;;5011734;28;20325;-78
2022/03/03 08:10:44;;;;;;;30.60;20.50;;;;;;;;;;4994349;28;20192;-78
2022/03/03 08:13:14;;;;;;;29.53;19.13;;;;;;;;;;5009807;28;20187;-78
2022/03/03 08:15:41;;;;;;;29.57;19.83;;;;;;;;;;5012742;28;20209;-78
2022/03/03 08:18:10;;;;;;;30.07;20.20;;;;;;;;;;5011984;28;20219;-78
2022/03/03 08:20:38;;;;;;;27.23;19.83;;;;;;;;;;5015173;28;20191;-78
2022/03/03 08:23:05;;;;;;;29.77;20.43;;;;;;;;;;5005221;28;20866;-78
2022/03/03 08:25:32;;;;;;;29.97;19.50;;;;;;;;;;5010036;28;20176;-78
2022/03/03 08:27:58;;;;;;;34.57;20.97;;;;;;;;;;5010388;28;20762;-78
2022/03/03 08:30:24;;;;;;;31.00;21.27;;;;;;;;;;5010433;28;20662;-78
2022/03/03 08:33:14;;;;;;;30.53;20.87;;;;;;;;;;5008731;28;20215;-78
2022/03/03 08:35:41;;;;;;;33.03;21.53;;;;;;;;;;5008207;28;20562;-78
2022/03/03 08:38:09;;;;;;;33.37;21.50;;;;;;;;;;5010533;28;20224;-78
2022/03/03 08:40:36;;;;;;;32.23;21.33;;;;;;;;;;5012082;28;20202;-78
2022/03/03 08:43:03;;;;;;;34.50;21.77;;;;;;;;;;5007851;28;21038;-78
2022/03/03 08:45:32;;;;;;;32.60;20.77;;;;;;;;;;5009593;28;20175;-78
2022/03/03 08:48:01;;;;;;;29.63;19.20;;;;;;;;;;5010072;28;20380;-78
2022/03/03 08:50:28;;;;;;;32.20;20.43;;;;;;;;;;5012296;28;20214;-78
2022/03/03 08:52:55;;;;;;;27.40;19.33;;;;;;;;;;5012824;28;20199;-78
2022/03/03 08:55:22;;;;;;;29.50;20.63;;;;;;;;;;5011143;28;21986;-79
2022/03/03 08:57:48;;;;;;;30.40;20.60;;;;;;;;;;5009695;28;20211;-75
2022/03/03 09:00:15;;;;;;;30.73;20.47;;;;;;;;;;5010586;28;20183;-77
2022/03/03 09:02:41;;;;;;;32.70;21.00;;;;;;;;;;5005350;28;20171;-77
2022/03/03 09:05:08;;;;;;;32.20;21.33;;;;;;;;;;5011088;28;20183;-77
2022/03/03 09:07:34;;;;;;;32.37;22.57;;;;;;;;;;5002254;28;20223;-77
2022/03/03 09:10:01;;;;;;;32.13;20.83;;;;;;;;;;5027299;28;20250;-77
2022/03/03 09:12:28;;;;;;;34.13;22.77;;;;;;;;;;5005991;28;20226;-78
2022/03/03 09:14:54;;;;;;;30.77;21.37;;;;;;;;;;5006582;28;20209;-78
2022/03/03 09:17:20;;;;;;;30.33;21.37;;;;;;;;;;5007029;28;20716;-78
2022/03/03 09:19:47;;;;;;;31.10;21.03;;;;;;;;;;5011140;28;20258;-78
2022/03/03 09:22:13;;;;;;;30.97;20.40;;;;;;;;;;5009296;28;20207;-77
2022/03/03 09:24:39;;;;;;;29.17;20.30;;;;;;;;;;5025356;28;20176;-78
2022/03/03 09:27:05;;;;;;;31.97;20.70;;;;;;;;;;5007100;28;20215;-78
2022/03/03 09:29:35;;;;;;;30.77;20.37;;;;;;;;;;5008831;28;20728;-78
2022/03/03 09:32:02;;;;;;;33.43;19.83;;;;;;;;;;5006491;28;20194;-78
2022/03/03 09:34:28;;;;;;;30.03;20.00;;;;;;;;;;5006369;28;20197;-78
2022/03/03 09:36:55;;;;;;;31.23;20.63;;;;;;;;;;5008796;28;20222;-78
2022/03/03 09:39:22;;;;;;;30.03;19.33;;;;;;;;;;5009439;28;20253;-80
2022/03/03 09:41:48;;;;;;;26.27;19.27;;;;;;;;;;5006884;28;20187;-80
2022/03/03 09:44:15;;;;;;;28.77;19.20;;;;;;;;;;5004829;28;20206;-78
2022/03/03 09:46:41;;;;;;;28.17;19.87;;;;;;;;;;4986436;28;20556;-77
2022/03/03 09:49:08;;;;;;;26.37;19.00;;;;;;;;;;5003683;28;20281;-80
2022/03/03 09:51:34;;;;;;;28.43;19.90;;;;;;;;;;5008748;28;20192;-79
2022/03/03 09:54:00;;;;;;;27.77;20.23;;;;;;;;;;5008224;28;20182;-79
2022/03/03 09:56:26;;;;;;;30.70;20.87;;;;;;;;;;5023407;28;20200;-79
2022/03/03 09:58:53;;;;;;;33.03;20.23;;;;;;;;;;5008116;28;20242;-79
2022/03/03 10:01:19;;;;;;;26.47;19.70;;;;;;;;;;5008728;28;20293;-79
2022/03/03 10:03:47;;;;;;;27.17;19.50;;;;;;;;;;5006341;28;20195;-79
2022/03/03 10:06:14;;;;;;;25.73;19.53;;;;;;;;;;5024391;28;20206;-79
2022/03/03 10:08:40;;;;;;;27.37;19.97;;;;;;;;;;5008512;28;20183;-77
2022/03/03 10:11:09;;;;;;;30.57;20.03;;;;;;;;;;5004123;28;20190;-78
2022/03/03 10:13:49;;;;;;;28.87;19.70;;;;;;;;;;5004744;28;20286;-78
2022/03/03 10:16:23;;;;;;;27.23;19.87;;;;;;;;;;5007257;28;20238;-78
2022/03/03 10:18:50;;;;;;;29.60;20.83;;;;;;;;;;5009741;28;20211;-78
2022/03/03 10:21:17;;;;;;;26.27;20.00;;;;;;;;;;5008383;28;20179;-78
2022/03/03 10:23:43;;;;;;;29.97;21.03;;;;;;;;;;5008696;28;20233;-78
2022/03/03 10:26:10;;;;;;;28.93;20.73;;;;;;;;;;5009052;28;20187;-78
2022/03/03 10:28:38;;;;;;;27.37;20.67;;;;;;;;;;5007208;28;20206;-78
2022/03/03 10:31:05;;;;;;;27.23;20.40;;;;;;;;;;5005572;28;20211;-77
2022/03/03 10:33:33;;;;;;;30.27;20.80;;;;;;;;;;5002778;28;20675;-78
2022/03/03 10:36:08;;;;;;;31.50;21.57;;;;;;;;;;5007787;28;20179;-78
2022/03/03 10:38:43;;;;;;;27.83;20.63;;;;;;;;;;5005511;28;20245;-78
2022/03/03 10:41:26;;;;;;;24.37;19.57;;;;;;;;;;5004984;28;20994;-78
2022/03/03 10:43:52;;;;;;;27.37;19.27;;;;;;;;;;5002654;28;20252;-78
2022/03/03 10:46:18;;;;;;;29.63;20.60;;;;;;;;;;5005373;28;20194;-78
2022/03/03 10:48:44;;;;;;;27.70;19.83;;;;;;;;;;5004839;28;20219;-78
2022/03/03 10:51:14;;;;;;;25.83;19.77;;;;;;;;;;5003557;28;20297;-77
2022/03/03 10:53:42;;;;;;;26.27;19.97;;;;;;;;;;5001921;28;20536;-77
2022/03/03 10:56:12;;;;;;;27.03;20.30;;;;;;;;;;5003076;28;20693;-77
2022/03/03 10:58:55;;;;;;;26.83;19.20;;;;;;;;;;5005718;28;20233;-77
2022/03/03 11:01:23;;;;;;;25.07;18.70;;;;;;;;;;5004561;28;20183;-77
2022/03/03 11:03:50;;;;;;;28.03;19.43;;;;;;;;;;5002294;28;20183;-78
2022/03/03 11:06:17;;;;;;;26.37;19.80;;;;;;;;;;5003309;28;20278;-77
2022/03/03 11:08:43;;;;;;;27.47;20.60;;;;;;;;;;5003903;28;20560;-77
2022/03/03 11:11:10;;;;;;;23.57;18.53;;;;;;;;;;5003361;28;20191;-80
2022/03/03 11:13:36;;;;;;;28.40;19.80;;;;;;;;;;5001853;28;20180;-77
2022/03/03 11:16:03;;;;;;;27.77;19.87;;;;;;;;;;4999798;28;20202;-77
2022/03/03 11:18:29;;;;;;;24.07;18.80;;;;;;;;;;5003472;28;20215;-76
2022/03/03 11:20:56;;;;;;;25.30;18.40;;;;;;;;;;5003065;28;20183;-76
2022/03/03 11:23:22;;;;;;;23.97;18.07;;;;;;;;;;4999975;28;20191;-76
2022/03/03 11:25:50;;;;;;;27.67;18.03;;;;;;;;;;5000555;28;20643;-76
2022/03/03 11:28:18;;;;;;;30.00;18.03;;;;;;;;;;4999094;28;20213;-76
2022/03/03 11:30:47;;;;;;;24.37;18.17;;;;;;;;;;4999835;28;20214;-76
2022/03/03 11:33:25;;;;;;;24.17;17.63;;;;;;;;;;5000766;28;20282;-78
2022/03/03 11:35:52;;;;;;;25.33;17.87;;;;;;;;;;5004813;28;20195;-77
2022/03/03 11:38:19;;;;;;;22.73;17.43;;;;;;;;;;5001234;28;20231;-75
2022/03/03 11:40:51;;;;;;;25.83;18.03;;;;;;;;;;4999957;28;20661;-75
2022/03/03 11:43:18;;;;;;;24.80;17.87;;;;;;;;;;5002555;28;20183;-76
2022/03/03 11:45:51;;;;;;;25.73;18.90;;;;;;;;;;5007444;28;20197;-78
2022/03/03 11:48:22;;;;;;;26.50;19.83;;;;;;;;;;5004488;28;20221;-77
2022/03/03 11:50:53;;;;;;;24.17;18.60;;;;;;;;;;5002131;28;20675;-78
2022/03/03 11:53:24;;;;;;;24.60;18.57;;;;;;;;;;5007640;28;21392;-78
2022/03/03 11:55:56;;;;;;;22.83;17.50;;;;;;;;;;5005414;28;20277;-78
2022/03/03 11:58:27;;;;;;;23.87;17.73;;;;;;;;;;5007207;28;20562;-79
2022/03/03 12:01:01;;;;;;;23.40;17.93;;;;;;;;;;5003422;28;20194;-79
2022/03/03 12:03:28;;;;;;;22.97;17.57;;;;;;;;;;5005876;28;20174;-77
2022/03/03 12:06:12;;;;;;;24.83;18.10;;;;;;;;;;5005052;28;20562;-79
2022/03/03 12:08:39;;;;;;;21.53;17.10;;;;;;;;;;5007187;28;20195;-78
2022/03/03 12:11:10;;;;;;;23.03;18.40;;;;;;;;;;5004326;28;20195;-78
2022/03/03 12:13:36;;;;;;;23.93;18.23;;;;;;;;;;5006601;28;20187;-78
2022/03/03 12:16:21;;;;;;;22.47;17.30;;;;;;;;;;5004878;28;20714;-79
2022/03/03 12:18:48;;;;;;;24.70;17.67;;;;;;;;;;5003827;28;20215;-77
2022/03/03 12:21:23;;;;;;;26.90;19.03;;;;;;;;;;5003714;28;20188;-77
2022/03/03 12:23:50;;;;;;;22.90;18.43;;;;;;;;;;5000616;28;20187;-76
2022/03/03 12:26:16;;;;;;;22.73;18.33;;;;;;;;;;5002110;28;20708;-77
2022/03/03 12:28:45;;;;;;;23.20;18.27;;;;;;;;;;5004267;28;20305;-77
2022/03/03 12:31:37;;;;;;;22.70;18.17;;;;;;;;;;4998996;28;20199;-76
2022/03/03 12:34:08;;;;;;;22.30;17.67;;;;;;;;;;5001654;28;20195;-76
2022/03/03 12:36:36;;;;;;;23.87;19.33;;;;;;;;;;5003042;28;20289;-76
2022/03/03 12:39:03;;;;;;;23.77;19.23;;;;;;;;;;5005687;28;20215;-77
2022/03/03 12:41:30;;;;;;;25.53;18.70;;;;;;;;;;5004683;28;20222;-77
2022/03/03 12:44:11;;;;;;;21.20;18.47;;;;;;;;;;5004354;28;20188;-76
2022/03/03 12:46:37;;;;;;;22.70;18.87;;;;;;;;;;5006944;28;20247;-77
2022/03/03 12:49:07;;;;;;;23.60;18.83;;;;;;;;;;5006231;28;20321;-77
2022/03/03 12:51:34;;;;;;;23.47;18.80;;;;;;;;;;5008948;28;20190;-76
2022/03/03 12:54:07;;;;;;;22.80;18.67;;;;;;;;;;5006071;28;20545;-77
2022/03/03 12:56:33;;;;;;;21.50;17.80;;;;;;;;;;5004489;28;20205;-77
2022/03/03 12:59:06;;;;;;;21.53;18.80;;;;;;;;;;5006207;28;20860;-77
2022/03/03 13:01:32;;;;;;;20.60;18.37;;;;;;;;;;5003793;28;20194;-77
2022/03/03 13:04:03;;;;;;;23.70;18.60;;;;;;;;;;5007930;28;20183;-77
2022/03/03 13:06:31;;;;;;;21.30;18.67;;;;;;;;;;5005458;28;20203;-77
2022/03/03 13:09:02;;;;;;;23.03;18.60;;;;;;;;;;5007429;28;20199;-77
2022/03/03 13:11:28;;;;;;;21.33;18.73;;;;;;;;;;5006402;28;20650;-77
2022/03/03 13:13:57;;;;;;;25.87;19.60;;;;;;;;;;5007925;28;21110;-77
2022/03/03 13:16:27;;;;;;;21.43;19.23;;;;;;;;;;4988430;28;21234;-77
2022/03/03 13:18:57;;;;;;;20.97;18.77;;;;;;;;;;5005333;28;20294;-78
2022/03/03 13:21:27;;;;;;;20.67;18.50;;;;;;;;;;5002831;28;20290;-77
2022/03/03 13:23:57;;;;;;;22.43;18.93;;;;;;;;;;5002042;28;20230;-77
2022/03/03 13:26:25;;;;;;;22.00;18.77;;;;;;;;;;5003639;28;20252;-77
2022/03/03 13:28:56;;;;;;;21.30;18.27;;;;;;;;;;5009118;28;20555;-77
2022/03/03 13:31:25;;;;;;;20.93;18.33;;;;;;;;;;5007733;28;20195;-77
2022/03/03 13:33:52;;;;;;;21.40;19.00;;;;;;;;;;5005642;28;20722;-77
2022/03/03 13:36:18;;;;;;;22.60;18.30;;;;;;;;;;5010980;28;20651;-77
2022/03/03 13:38:45;;;;;;;21.97;17.73;;;;;;;;;;5003527;28;20215;-77
2022/03/03 13:41:21;;;;;;;19.60;17.60;;;;;;;;;;5002298;28;20258;-76
2022/03/03 13:43:47;;;;;;;20.70;18.60;;;;;;;;;;5001954;28;20183;-75
2022/03/03 13:46:27;;;;;;;20.10;17.60;;;;;;;;;;5000635;28;20278;-75
2022/03/03 13:48:53;;;;;;;19.87;17.27;;;;;;;;;;5003164;28;20195;-75
2022/03/03 13:51:19;;;;;;;19.17;16.17;;;;;;;;;;5000521;28;20273;-74
2022/03/03 13:54:03;;;;;;;18.03;16.13;;;;;;;;;;5001471;28;20551;-74
2022/03/03 13:56:30;;;;;;;19.23;16.27;;;;;;;;;;5004455;28;20203;-76
2022/03/03 13:59:09;;;;;;;17.67;15.77;;;;;;;;;;5002105;28;20603;-77
2022/03/03 14:01:36;;;;;;;17.83;16.03;;;;;;;;;;5005065;28;20185;-78
2022/03/03 14:04:14;;;;;;;16.93;15.20;;;;;;;;;;5020574;28;20184;-77
2022/03/03 14:06:44;;;;;;;16.80;15.10;;;;;;;;;;5004772;28;20248;-79
2022/03/03 14:09:24;;;;;;;17.53;15.43;;;;;;;;;;5003776;28;20259;-77
2022/03/03 14:11:50;;;;;;;16.00;14.07;;;;;;;;;;5005026;28;20738;-77
2022/03/03 14:14:21;;;;;;;15.43;13.93;;;;;;;;;;5001747;28;20181;-79
2022/03/03 14:16:49;;;;;;;15.37;13.47;;;;;;;;;;5005314;28;20320;-79
2022/03/03 14:19:15;;;;;;;12.07;10.87;;;;;;;;;;5003223;28;20200;-81
2022/03/03 14:21:42;;;;;;;11.07;9.97;;;;;;;;;;5003095;28;20243;-79
2022/03/03 14:24:08;;;;;;;11.37;10.27;;;;;;;;;;5002612;28;20290;-81